Terminal Aerodrome Forecast
Issued by NWS Sterling, VA

Current Version | Previous Version | Graphics & Text | Print | Product List | Glossary On
Versions: 1 2 3 4 5 6 7 8 9 10 11 12 13 14 15 16 17 18 19 20 21 22 23 24
355
FTUS41 KLWX 090848 AAA
TAFDCA
TAF AMD
KDCA 090848Z 0909/1006 09007KT P6SM -RA OVC012
     FM091100 07007KT P6SM -RASN OVC008
     FM091400 01006KT 1SM -SN OVC006
     FM091700 34007KT 4SM -SNRA OVC015
     FM100200 29009KT P6SM OVC040=

USA.gov is the U.S. government's official web portal to all federal, state and local government web resources and services.